sensor_id;sensor_type;location;lat;lon;timestamp;P1;durP1;ratioP1;P2;durP2;ratioP2
13941;SDS011;7043;51.630;7.254;2022-09-09T00:00:05;1.40;;;0.80;;
13941;SDS011;7043;51.630;7.254;2022-09-09T00:02:32;2.00;;;0.60;;
13941;SDS011;7043;51.630;7.254;2022-09-09T00:05:21;1.23;;;0.60;;
13941;SDS011;7043;51.630;7.254;2022-09-09T00:07:47;2.03;;;0.70;;
13941;SDS011;7043;51.630;7.254;2022-09-09T00:12:47;1.53;;;0.70;;
13941;SDS011;7043;51.630;7.254;2022-09-09T00:15:22;1.50;;;0.70;;
13941;SDS011;7043;51.630;7.254;2022-09-09T00:17:52;2.53;;;0.70;;
13941;SDS011;7043;51.630;7.254;2022-09-09T00:20:34;1.87;;;0.60;;
13941;SDS011;7043;51.630;7.254;2022-09-09T00:25:40;2.37;;;0.70;;
13941;SDS011;7043;51.630;7.254;2022-09-09T00:28:13;2.00;;;0.80;;
13941;SDS011;7043;51.630;7.254;2022-09-09T00:30:42;1.83;;;0.60;;
13941;SDS011;7043;51.630;7.254;2022-09-09T00:33:12;0.83;;;0.80;;
13941;SDS011;7043;51.630;7.254;2022-09-09T00:36:01;2.53;;;0.93;;
13941;SDS011;7043;51.630;7.254;2022-09-09T00:39:01;2.07;;;1.17;;
13941;SDS011;7043;51.630;7.254;2022-09-09T00:44:03;1.60;;;0.90;;
13941;SDS011;7043;51.630;7.254;2022-09-09T00:52:00;2.57;;;1.20;;
13941;SDS011;7043;51.630;7.254;2022-09-09T01:01:53;1.67;;;1.00;;
13941;SDS011;7043;51.630;7.254;2022-09-09T01:04:23;1.90;;;1.00;;
13941;SDS011;7043;51.630;7.254;2022-09-09T01:06:51;1.53;;;0.80;;
13941;SDS011;7043;51.630;7.254;2022-09-09T01:09:21;1.80;;;1.03;;
13941;SDS011;7043;51.630;7.254;2022-09-09T01:14:19;1.93;;;0.80;;
13941;SDS011;7043;51.630;7.254;2022-09-09T01:16:50;1.47;;;0.90;;
13941;SDS011;7043;51.630;7.254;2022-09-09T01:19:19;1.47;;;0.80;;
13941;SDS011;7043;51.630;7.254;2022-09-09T01:21:54;3.00;;;0.93;;
13941;SDS011;7043;51.630;7.254;2022-09-09T01:24:26;2.40;;;0.90;;
13941;SDS011;7043;51.630;7.254;2022-09-09T01:26:56;3.47;;;1.37;;
13941;SDS011;7043;51.630;7.254;2022-09-09T01:29:24;1.30;;;0.83;;
13941;SDS011;7043;51.630;7.254;2022-09-09T01:34:23;2.07;;;1.00;;
13941;SDS011;7043;51.630;7.254;2022-09-09T01:36:53;1.97;;;1.10;;
13941;SDS011;7043;51.630;7.254;2022-09-09T01:39:21;2.80;;;1.10;;
13941;SDS011;7043;51.630;7.254;2022-09-09T01:41:47;3.13;;;1.20;;
13941;SDS011;7043;51.630;7.254;2022-09-09T01:44:13;5.00;;;1.30;;
13941;SDS011;7043;51.630;7.254;2022-09-09T01:46:39;2.57;;;1.10;;
13941;SDS011;7043;51.630;7.254;2022-09-09T01:49:06;2.13;;;1.30;;
13941;SDS011;7043;51.630;7.254;2022-09-09T01:51:32;2.77;;;1.10;;
13941;SDS011;7043;51.630;7.254;2022-09-09T01:53:58;2.97;;;1.30;;
13941;SDS011;7043;51.630;7.254;2022-09-09T02:01:39;3.97;;;1.57;;
13941;SDS011;7043;51.630;7.254;2022-09-09T02:04:12;2.50;;;1.53;;
13941;SDS011;7043;51.630;7.254;2022-09-09T02:06:41;3.30;;;1.80;;
13941;SDS011;7043;51.630;7.254;2022-09-09T02:09:10;3.37;;;1.70;;
13941;SDS011;7043;51.630;7.254;2022-09-09T02:11:37;3.40;;;1.70;;
13941;SDS011;7043;51.630;7.254;2022-09-09T02:16:39;3.00;;;2.13;;
13941;SDS011;7043;51.630;7.254;2022-09-09T02:19:08;2.63;;;2.13;;
13941;SDS011;7043;51.630;7.254;2022-09-09T02:21:40;3.27;;;2.40;;
13941;SDS011;7043;51.630;7.254;2022-09-09T02:24:07;4.37;;;2.40;;
13941;SDS011;7043;51.630;7.254;2022-09-09T02:26:35;4.70;;;2.90;;
13941;SDS011;7043;51.630;7.254;2022-09-09T02:29:03;4.83;;;2.63;;
13941;SDS011;7043;51.630;7.254;2022-09-09T02:31:30;2.73;;;2.50;;
13941;SDS011;7043;51.630;7.254;2022-09-09T02:33:58;4.80;;;3.00;;
13941;SDS011;7043;51.630;7.254;2022-09-09T02:36:26;5.53;;;3.03;;
13941;SDS011;7043;51.630;7.254;2022-09-09T02:38:54;4.53;;;2.93;;
13941;SDS011;7043;51.630;7.254;2022-09-09T02:41:20;5.07;;;3.20;;
13941;SDS011;7043;51.630;7.254;2022-09-09T02:43:48;4.43;;;3.40;;
13941;SDS011;7043;51.630;7.254;2022-09-09T02:49:09;3.77;;;3.13;;
13941;SDS011;7043;51.630;7.254;2022-09-09T02:52:20;5.53;;;3.30;;
13941;SDS011;7043;51.630;7.254;2022-09-09T02:54:27;4.97;;;3.23;;
13941;SDS011;7043;51.630;7.254;2022-09-09T02:56:55;4.57;;;2.87;;
13941;SDS011;7043;51.630;7.254;2022-09-09T02:59:26;6.40;;;2.90;;
13941;SDS011;7043;51.630;7.254;2022-09-09T03:01:52;5.03;;;3.37;;
13941;SDS011;7043;51.630;7.254;2022-09-09T03:04:18;5.10;;;2.83;;
13941;SDS011;7043;51.630;7.254;2022-09-09T03:06:45;6.13;;;3.40;;
13941;SDS011;7043;51.630;7.254;2022-09-09T03:09:11;5.07;;;2.83;;
13941;SDS011;7043;51.630;7.254;2022-09-09T03:11:37;6.97;;;3.13;;
13941;SDS011;7043;51.630;7.254;2022-09-09T03:14:03;5.63;;;3.10;;
13941;SDS011;7043;51.630;7.254;2022-09-09T03:16:30;3.50;;;2.87;;
13941;SDS011;7043;51.630;7.254;2022-09-09T03:18:56;6.27;;;3.30;;
13941;SDS011;7043;51.630;7.254;2022-09-09T03:21:22;6.20;;;3.13;;
13941;SDS011;7043;51.630;7.254;2022-09-09T03:23:48;4.37;;;3.53;;
13941;SDS011;7043;51.630;7.254;2022-09-09T03:26:14;5.70;;;3.57;;
13941;SDS011;7043;51.630;7.254;2022-09-09T03:28:40;5.17;;;3.43;;
13941;SDS011;7043;51.630;7.254;2022-09-09T03:31:07;10.07;;;6.67;;
13941;SDS011;7043;51.630;7.254;2022-09-09T03:33:35;6.07;;;3.50;;
13941;SDS011;7043;51.630;7.254;2022-09-09T03:36:02;8.10;;;3.80;;
13941;SDS011;7043;51.630;7.254;2022-09-09T03:38:28;6.20;;;3.60;;
13941;SDS011;7043;51.630;7.254;2022-09-09T03:40:54;6.80;;;3.50;;
13941;SDS011;7043;51.630;7.254;2022-09-09T03:43:22;4.83;;;3.50;;
13941;SDS011;7043;51.630;7.254;2022-09-09T03:45:48;5.67;;;3.33;;
13941;SDS011;7043;51.630;7.254;2022-09-09T03:48:15;6.80;;;3.47;;
13941;SDS011;7043;51.630;7.254;2022-09-09T03:50:48;6.07;;;3.63;;
13941;SDS011;7043;51.630;7.254;2022-09-09T03:53:15;5.70;;;3.20;;
13941;SDS011;7043;51.630;7.254;2022-09-09T03:55:43;4.50;;;3.20;;
13941;SDS011;7043;51.630;7.254;2022-09-09T03:58:10;4.93;;;2.70;;
13941;SDS011;7043;51.630;7.254;2022-09-09T04:00:36;5.57;;;3.03;;
13941;SDS011;7043;51.630;7.254;2022-09-09T04:03:07;5.33;;;2.70;;
13941;SDS011;7043;51.630;7.254;2022-09-09T04:05:33;4.60;;;2.40;;
13941;SDS011;7043;51.630;7.254;2022-09-09T04:07:59;5.60;;;2.57;;
13941;SDS011;7043;51.630;7.254;2022-09-09T04:10:25;4.37;;;2.60;;
13941;SDS011;7043;51.630;7.254;2022-09-09T04:12:51;5.80;;;2.87;;
13941;SDS011;7043;51.630;7.254;2022-09-09T04:15:17;4.67;;;2.40;;
13941;SDS011;7043;51.630;7.254;2022-09-09T04:17:43;3.97;;;2.40;;
13941;SDS011;7043;51.630;7.254;2022-09-09T04:20:09;3.53;;;2.30;;
13941;SDS011;7043;51.630;7.254;2022-09-09T04:22:37;3.27;;;2.07;;
13941;SDS011;7043;51.630;7.254;2022-09-09T04:25:04;5.47;;;2.40;;
13941;SDS011;7043;51.630;7.254;2022-09-09T04:27:30;5.77;;;2.47;;
13941;SDS011;7043;51.630;7.254;2022-09-09T04:29:57;4.00;;;2.23;;
13941;SDS011;7043;51.630;7.254;2022-09-09T04:32:23;3.47;;;2.50;;
13941;SDS011;7043;51.630;7.254;2022-09-09T04:34:52;4.67;;;2.47;;
13941;SDS011;7043;51.630;7.254;2022-09-09T04:37:18;4.03;;;2.67;;
13941;SDS011;7043;51.630;7.254;2022-09-09T04:39:44;4.50;;;2.30;;
13941;SDS011;7043;51.630;7.254;2022-09-09T04:42:10;3.20;;;2.33;;
13941;SDS011;7043;51.630;7.254;2022-09-09T04:44:37;4.47;;;2.10;;
13941;SDS011;7043;51.630;7.254;2022-09-09T04:47:04;4.73;;;2.40;;
13941;SDS011;7043;51.630;7.254;2022-09-09T04:49:30;4.80;;;2.30;;
13941;SDS011;7043;51.630;7.254;2022-09-09T04:51:56;4.10;;;2.30;;
13941;SDS011;7043;51.630;7.254;2022-09-09T04:54:22;5.40;;;2.40;;
13941;SDS011;7043;51.630;7.254;2022-09-09T04:56:49;4.87;;;2.60;;
13941;SDS011;7043;51.630;7.254;2022-09-09T04:59:16;3.30;;;2.30;;
13941;SDS011;7043;51.630;7.254;2022-09-09T05:01:42;3.70;;;2.40;;
13941;SDS011;7043;51.630;7.254;2022-09-09T05:04:08;5.97;;;2.70;;
13941;SDS011;7043;51.630;7.254;2022-09-09T05:06:34;3.80;;;2.20;;
13941;SDS011;7043;51.630;7.254;2022-09-09T05:09:01;4.13;;;2.53;;
13941;SDS011;7043;51.630;7.254;2022-09-09T05:11:31;6.10;;;2.57;;
13941;SDS011;7043;51.630;7.254;2022-09-09T05:13:57;5.40;;;2.87;;
13941;SDS011;7043;51.630;7.254;2022-09-09T05:16:23;4.27;;;2.63;;
13941;SDS011;7043;51.630;7.254;2022-09-09T05:18:50;3.50;;;2.50;;
13941;SDS011;7043;51.630;7.254;2022-09-09T05:21:16;5.23;;;2.80;;
13941;SDS011;7043;51.630;7.254;2022-09-09T05:23:43;5.20;;;2.90;;
13941;SDS011;7043;51.630;7.254;2022-09-09T05:26:14;4.47;;;2.57;;
13941;SDS011;7043;51.630;7.254;2022-09-09T05:28:40;5.33;;;2.60;;
13941;SDS011;7043;51.630;7.254;2022-09-09T05:31:07;4.83;;;2.67;;
13941;SDS011;7043;51.630;7.254;2022-09-09T05:33:34;4.53;;;2.47;;
13941;SDS011;7043;51.630;7.254;2022-09-09T05:36:01;4.20;;;2.80;;
13941;SDS011;7043;51.630;7.254;2022-09-09T05:38:28;4.13;;;2.60;;
13941;SDS011;7043;51.630;7.254;2022-09-09T05:40:54;7.43;;;4.40;;
13941;SDS011;7043;51.630;7.254;2022-09-09T05:43:21;7.47;;;3.27;;
13941;SDS011;7043;51.630;7.254;2022-09-09T05:45:47;5.47;;;2.73;;
13941;SDS011;7043;51.630;7.254;2022-09-09T05:48:17;6.37;;;3.20;;
13941;SDS011;7043;51.630;7.254;2022-09-09T05:50:43;5.53;;;2.80;;
13941;SDS011;7043;51.630;7.254;2022-09-09T05:53:10;6.23;;;2.70;;
13941;SDS011;7043;51.630;7.254;2022-09-09T05:55:36;6.30;;;2.77;;
13941;SDS011;7043;51.630;7.254;2022-09-09T05:58:02;4.77;;;2.43;;
13941;SDS011;7043;51.630;7.254;2022-09-09T06:00:29;5.33;;;2.20;;
13941;SDS011;7043;51.630;7.254;2022-09-09T06:02:56;4.30;;;2.33;;
13941;SDS011;7043;51.630;7.254;2022-09-09T06:05:22;3.73;;;2.20;;
13941;SDS011;7043;51.630;7.254;2022-09-09T06:07:52;5.10;;;2.40;;
13941;SDS011;7043;51.630;7.254;2022-09-09T06:10:19;4.60;;;2.50;;
13941;SDS011;7043;51.630;7.254;2022-09-09T06:12:44;5.43;;;2.47;;
13941;SDS011;7043;51.630;7.254;2022-09-09T06:15:10;4.67;;;2.40;;
13941;SDS011;7043;51.630;7.254;2022-09-09T06:17:36;6.03;;;2.67;;
13941;SDS011;7043;51.630;7.254;2022-09-09T06:20:04;6.53;;;2.53;;
13941;SDS011;7043;51.630;7.254;2022-09-09T06:22:30;7.03;;;2.57;;
13941;SDS011;7043;51.630;7.254;2022-09-09T06:24:56;7.00;;;2.43;;
13941;SDS011;7043;51.630;7.254;2022-09-09T06:27:22;5.43;;;2.60;;
13941;SDS011;7043;51.630;7.254;2022-09-09T06:29:48;6.97;;;2.60;;
13941;SDS011;7043;51.630;7.254;2022-09-09T06:32:14;5.20;;;2.60;;
13941;SDS011;7043;51.630;7.254;2022-09-09T06:34:40;6.87;;;2.50;;
13941;SDS011;7043;51.630;7.254;2022-09-09T06:37:06;4.43;;;2.20;;
13941;SDS011;7043;51.630;7.254;2022-09-09T06:39:33;5.30;;;2.40;;
13941;SDS011;7043;51.630;7.254;2022-09-09T06:41:59;5.50;;;2.77;;
13941;SDS011;7043;51.630;7.254;2022-09-09T06:44:25;7.30;;;2.63;;
13941;SDS011;7043;51.630;7.254;2022-09-09T06:46:51;5.80;;;2.33;;
13941;SDS011;7043;51.630;7.254;2022-09-09T06:49:18;6.77;;;2.57;;
13941;SDS011;7043;51.630;7.254;2022-09-09T06:51:44;4.97;;;2.07;;
13941;SDS011;7043;51.630;7.254;2022-09-09T06:54:11;7.77;;;2.50;;
13941;SDS011;7043;51.630;7.254;2022-09-09T06:56:41;7.47;;;2.80;;
13941;SDS011;7043;51.630;7.254;2022-09-09T06:59:08;7.67;;;2.70;;
13941;SDS011;7043;51.630;7.254;2022-09-09T07:01:35;5.80;;;2.00;;
13941;SDS011;7043;51.630;7.254;2022-09-09T07:04:02;5.30;;;2.20;;
13941;SDS011;7043;51.630;7.254;2022-09-09T07:06:32;3.33;;;2.00;;
13941;SDS011;7043;51.630;7.254;2022-09-09T07:09:03;7.80;;;2.47;;
13941;SDS011;7043;51.630;7.254;2022-09-09T07:11:30;3.97;;;1.97;;
13941;SDS011;7043;51.630;7.254;2022-09-09T07:13:57;4.70;;;2.00;;
13941;SDS011;7043;51.630;7.254;2022-09-09T07:16:24;5.40;;;2.20;;
13941;SDS011;7043;51.630;7.254;2022-09-09T07:18:50;7.33;;;2.73;;
13941;SDS011;7043;51.630;7.254;2022-09-09T07:21:16;4.07;;;1.90;;
13941;SDS011;7043;51.630;7.254;2022-09-09T07:23:42;5.20;;;2.37;;
13941;SDS011;7043;51.630;7.254;2022-09-09T07:26:12;5.87;;;2.10;;
13941;SDS011;7043;51.630;7.254;2022-09-09T07:28:38;7.10;;;2.00;;
13941;SDS011;7043;51.630;7.254;2022-09-09T07:31:05;6.70;;;1.70;;
13941;SDS011;7043;51.630;7.254;2022-09-09T07:33:33;5.10;;;1.80;;
13941;SDS011;7043;51.630;7.254;2022-09-09T07:36:07;4.47;;;1.83;;
13941;SDS011;7043;51.630;7.254;2022-09-09T07:38:41;5.43;;;1.70;;
13941;SDS011;7043;51.630;7.254;2022-09-09T07:41:09;4.50;;;1.70;;
13941;SDS011;7043;51.630;7.254;2022-09-09T07:43:39;5.17;;;1.90;;
13941;SDS011;7043;51.630;7.254;2022-09-09T07:46:06;4.60;;;1.43;;
13941;SDS011;7043;51.630;7.254;2022-09-09T07:48:32;5.30;;;1.90;;
13941;SDS011;7043;51.630;7.254;2022-09-09T07:53:31;5.97;;;2.00;;
13941;SDS011;7043;51.630;7.254;2022-09-09T07:56:06;3.90;;;1.67;;
13941;SDS011;7043;51.630;7.254;2022-09-09T07:58:34;5.30;;;1.70;;
13941;SDS011;7043;51.630;7.254;2022-09-09T08:01:00;4.63;;;1.60;;
13941;SDS011;7043;51.630;7.254;2022-09-09T08:03:26;6.10;;;1.73;;
13941;SDS011;7043;51.630;7.254;2022-09-09T08:05:52;4.90;;;1.60;;
13941;SDS011;7043;51.630;7.254;2022-09-09T08:08:18;4.60;;;1.70;;
13941;SDS011;7043;51.630;7.254;2022-09-09T08:10:44;3.73;;;1.40;;
13941;SDS011;7043;51.630;7.254;2022-09-09T08:13:10;5.03;;;1.47;;
13941;SDS011;7043;51.630;7.254;2022-09-09T08:15:37;6.33;;;2.00;;
13941;SDS011;7043;51.630;7.254;2022-09-09T08:18:04;6.20;;;1.87;;
13941;SDS011;7043;51.630;7.254;2022-09-09T08:20:30;3.97;;;1.50;;
13941;SDS011;7043;51.630;7.254;2022-09-09T08:22:56;6.23;;;1.83;;
13941;SDS011;7043;51.630;7.254;2022-09-09T08:25:23;3.17;;;1.50;;
13941;SDS011;7043;51.630;7.254;2022-09-09T08:27:49;9.20;;;1.70;;
13941;SDS011;7043;51.630;7.254;2022-09-09T08:30:15;6.80;;;1.70;;
13941;SDS011;7043;51.630;7.254;2022-09-09T08:32:41;3.50;;;1.50;;
13941;SDS011;7043;51.630;7.254;2022-09-09T08:35:08;5.23;;;1.50;;
13941;SDS011;7043;51.630;7.254;2022-09-09T08:37:34;7.30;;;1.80;;
13941;SDS011;7043;51.630;7.254;2022-09-09T08:40:00;4.23;;;1.40;;
13941;SDS011;7043;51.630;7.254;2022-09-09T08:57:55;3.93;;;1.83;;
13941;SDS011;7043;51.630;7.254;2022-09-09T09:00:22;4.03;;;1.50;;
13941;SDS011;7043;51.630;7.254;2022-09-09T09:03:04;5.90;;;1.80;;
13941;SDS011;7043;51.630;7.254;2022-09-09T09:05:33;5.07;;;1.90;;
13941;SDS011;7043;51.630;7.254;2022-09-09T09:10:39;3.93;;;1.90;;
13941;SDS011;7043;51.630;7.254;2022-09-09T09:13:14;5.57;;;2.30;;
13941;SDS011;7043;51.630;7.254;2022-09-09T09:15:40;4.18;;;2.20;;
13941;SDS011;7043;51.630;7.254;2022-09-09T09:18:07;5.10;;;2.50;;
13941;SDS011;7043;51.630;7.254;2022-09-09T09:20:42;4.87;;;2.37;;
13941;SDS011;7043;51.630;7.254;2022-09-09T09:23:13;5.23;;;2.47;;
13941;SDS011;7043;51.630;7.254;2022-09-09T09:25:41;4.97;;;2.03;;
13941;SDS011;7043;51.630;7.254;2022-09-09T09:28:13;4.70;;;2.10;;
13941;SDS011;7043;51.630;7.254;2022-09-09T09:31:04;4.68;;;2.30;;
13941;SDS011;7043;51.630;7.254;2022-09-09T09:35:57;3.20;;;1.88;;
13941;SDS011;7043;51.630;7.254;2022-09-09T09:38:25;4.70;;;2.10;;
13941;SDS011;7043;51.630;7.254;2022-09-09T09:40:53;5.22;;;1.70;;
13941;SDS011;7043;51.630;7.254;2022-09-09T09:43:29;3.07;;;1.77;;
13941;SDS011;7043;51.630;7.254;2022-09-09T09:45:56;4.40;;;2.22;;
13941;SDS011;7043;51.630;7.254;2022-09-09T09:48:23;4.47;;;1.98;;
13941;SDS011;7043;51.630;7.254;2022-09-09T09:50:59;3.80;;;1.90;;
13941;SDS011;7043;51.630;7.254;2022-09-09T09:53:27;5.93;;;2.38;;
13941;SDS011;7043;51.630;7.254;2022-09-09T09:56:09;4.05;;;2.15;;
13941;SDS011;7043;51.630;7.254;2022-09-09T10:01:21;4.15;;;2.00;;
13941;SDS011;7043;51.630;7.254;2022-09-09T10:03:52;4.25;;;2.30;;
13941;SDS011;7043;51.630;7.254;2022-09-09T10:06:32;5.43;;;2.40;;
13941;SDS011;7043;51.630;7.254;2022-09-09T10:08:58;3.85;;;1.85;;
13941;SDS011;7043;51.630;7.254;2022-09-09T10:27:04;6.70;;;1.70;;
13941;SDS011;7043;51.630;7.254;2022-09-09T10:42:44;5.28;;;1.27;;
13941;SDS011;7043;51.630;7.254;2022-09-09T10:55:41;4.45;;;1.10;;
13941;SDS011;7043;51.630;7.254;2022-09-09T10:58:10;4.30;;;1.42;;
13941;SDS011;7043;51.630;7.254;2022-09-09T11:00:42;4.25;;;1.20;;
13941;SDS011;7043;51.630;7.254;2022-09-09T11:03:21;5.20;;;1.08;;
13941;SDS011;7043;51.630;7.254;2022-09-09T11:06:06;2.20;;;1.15;;
13941;SDS011;7043;51.630;7.254;2022-09-09T11:08:36;5.63;;;2.15;;
13941;SDS011;7043;51.630;7.254;2022-09-09T11:18:50;3.72;;;1.10;;
13941;SDS011;7043;51.630;7.254;2022-09-09T11:21:21;1.70;;;1.00;;
13941;SDS011;7043;51.630;7.254;2022-09-09T11:23:56;2.20;;;0.90;;
13941;SDS011;7043;51.630;7.254;2022-09-09T11:26:28;3.65;;;1.02;;
13941;SDS011;7043;51.630;7.254;2022-09-09T11:37:08;2.80;;;1.00;;
13941;SDS011;7043;51.630;7.254;2022-09-09T11:44:33;3.28;;;1.30;;
13941;SDS011;7043;51.630;7.254;2022-09-09T11:46:59;3.60;;;1.02;;
13941;SDS011;7043;51.630;7.254;2022-09-09T11:49:29;2.85;;;1.30;;
13941;SDS011;7043;51.630;7.254;2022-09-09T11:51:56;2.60;;;1.10;;
13941;SDS011;7043;51.630;7.254;2022-09-09T11:56:48;2.75;;;1.00;;
13941;SDS011;7043;51.630;7.254;2022-09-09T12:01:44;4.72;;;1.30;;
13941;SDS011;7043;51.630;7.254;2022-09-09T12:06:48;2.22;;;1.15;;
13941;SDS011;7043;51.630;7.254;2022-09-09T12:11:42;3.05;;;1.05;;
13941;SDS011;7043;51.630;7.254;2022-09-09T12:14:18;2.28;;;1.10;;
13941;SDS011;7043;51.630;7.254;2022-09-09T12:16:44;2.95;;;1.23;;
13941;SDS011;7043;51.630;7.254;2022-09-09T12:19:14;3.60;;;1.00;;
13941;SDS011;7043;51.630;7.254;2022-09-09T12:21:44;2.42;;;1.23;;
13941;SDS011;7043;51.630;7.254;2022-09-09T12:24:20;1.73;;;1.05;;
13941;SDS011;7043;51.630;7.254;2022-09-09T12:32:24;6.65;;;1.30;;
13941;SDS011;7043;51.630;7.254;2022-09-09T12:35:02;3.95;;;1.27;;
13941;SDS011;7043;51.630;7.254;2022-09-09T12:37:34;3.50;;;1.02;;
13941;SDS011;7043;51.630;7.254;2022-09-09T12:40:02;3.88;;;1.08;;
13941;SDS011;7043;51.630;7.254;2022-09-09T12:42:30;4.50;;;1.17;;
13941;SDS011;7043;51.630;7.254;2022-09-09T12:45:00;1.33;;;0.80;;
13941;SDS011;7043;51.630;7.254;2022-09-09T12:47:41;3.17;;;1.00;;
13941;SDS011;7043;51.630;7.254;2022-09-09T12:50:23;1.77;;;0.90;;
13941;SDS011;7043;51.630;7.254;2022-09-09T12:52:51;2.42;;;0.95;;
13941;SDS011;7043;51.630;7.254;2022-09-09T12:55:19;2.45;;;1.15;;
13941;SDS011;7043;51.630;7.254;2022-09-09T12:57:46;2.03;;;0.93;;
13941;SDS011;7043;51.630;7.254;2022-09-09T13:00:20;2.38;;;0.93;;
13941;SDS011;7043;51.630;7.254;2022-09-09T13:02:51;3.53;;;1.10;;
13941;SDS011;7043;51.630;7.254;2022-09-09T13:07:46;3.05;;;1.00;;
13941;SDS011;7043;51.630;7.254;2022-09-09T13:10:13;3.30;;;1.15;;
13941;SDS011;7043;51.630;7.254;2022-09-09T13:12:39;2.42;;;1.00;;
13941;SDS011;7043;51.630;7.254;2022-09-09T13:15:10;1.65;;;0.80;;
13941;SDS011;7043;51.630;7.254;2022-09-09T13:17:39;3.10;;;0.93;;
13941;SDS011;7043;51.630;7.254;2022-09-09T13:20:06;1.88;;;0.70;;
13941;SDS011;7043;51.630;7.254;2022-09-09T13:22:37;2.65;;;1.02;;
13941;SDS011;7043;51.630;7.254;2022-09-09T13:25:13;3.38;;;1.92;;
13941;SDS011;7043;51.630;7.254;2022-09-09T13:27:51;2.60;;;1.02;;
13941;SDS011;7043;51.630;7.254;2022-09-09T13:30:22;2.63;;;1.00;;
13941;SDS011;7043;51.630;7.254;2022-09-09T13:35:34;2.35;;;1.05;;
13941;SDS011;7043;51.630;7.254;2022-09-09T13:38:07;2.88;;;0.90;;
13941;SDS011;7043;51.630;7.254;2022-09-09T13:40:35;1.80;;;0.68;;
13941;SDS011;7043;51.630;7.254;2022-09-09T13:43:01;2.07;;;0.70;;
13941;SDS011;7043;51.630;7.254;2022-09-09T13:45:28;2.47;;;1.00;;
13941;SDS011;7043;51.630;7.254;2022-09-09T13:47:55;3.00;;;0.90;;
13941;SDS011;7043;51.630;7.254;2022-09-09T13:52:47;5.70;;;2.20;;
13941;SDS011;7043;51.630;7.254;2022-09-09T13:55:15;4.93;;;2.10;;
13941;SDS011;7043;51.630;7.254;2022-09-09T13:57:50;4.10;;;1.83;;
13941;SDS011;7043;51.630;7.254;2022-09-09T14:00:16;5.00;;;1.80;;
13941;SDS011;7043;51.630;7.254;2022-09-09T14:02:42;5.47;;;2.00;;
13941;SDS011;7043;51.630;7.254;2022-09-09T14:05:09;4.60;;;1.90;;
13941;SDS011;7043;51.630;7.254;2022-09-09T14:07:36;4.27;;;1.80;;
13941;SDS011;7043;51.630;7.254;2022-09-09T14:10:03;5.67;;;1.90;;
13941;SDS011;7043;51.630;7.254;2022-09-09T14:12:29;3.47;;;1.67;;
13941;SDS011;7043;51.630;7.254;2022-09-09T14:14:55;4.87;;;2.00;;
13941;SDS011;7043;51.630;7.254;2022-09-09T14:17:21;4.37;;;1.87;;
13941;SDS011;7043;51.630;7.254;2022-09-09T14:19:47;5.30;;;2.30;;
13941;SDS011;7043;51.630;7.254;2022-09-09T14:22:14;4.40;;;2.20;;
13941;SDS011;7043;51.630;7.254;2022-09-09T14:24:40;4.80;;;2.20;;
13941;SDS011;7043;51.630;7.254;2022-09-09T14:27:06;6.13;;;2.60;;
13941;SDS011;7043;51.630;7.254;2022-09-09T14:29:32;4.63;;;2.37;;
13941;SDS011;7043;51.630;7.254;2022-09-09T14:31:58;4.63;;;1.83;;
13941;SDS011;7043;51.630;7.254;2022-09-09T14:34:25;3.83;;;2.00;;
13941;SDS011;7043;51.630;7.254;2022-09-09T14:36:51;3.03;;;1.20;;
13941;SDS011;7043;51.630;7.254;2022-09-09T14:39:17;2.60;;;1.20;;
13941;SDS011;7043;51.630;7.254;2022-09-09T14:41:44;3.90;;;1.60;;
13941;SDS011;7043;51.630;7.254;2022-09-09T14:44:10;4.40;;;1.33;;
13941;SDS011;7043;51.630;7.254;2022-09-09T14:46:36;1.77;;;0.97;;
13941;SDS011;7043;51.630;7.254;2022-09-09T14:49:02;3.17;;;1.40;;
13941;SDS011;7043;51.630;7.254;2022-09-09T14:51:29;1.57;;;1.03;;
13941;SDS011;7043;51.630;7.254;2022-09-09T14:53:56;4.33;;;1.20;;
13941;SDS011;7043;51.630;7.254;2022-09-09T14:56:23;3.87;;;1.00;;
13941;SDS011;7043;51.630;7.254;2022-09-09T14:58:52;2.90;;;1.07;;
13941;SDS011;7043;51.630;7.254;2022-09-09T15:01:19;4.13;;;1.53;;
13941;SDS011;7043;51.630;7.254;2022-09-09T15:03:52;2.73;;;1.40;;
13941;SDS011;7043;51.630;7.254;2022-09-09T15:06:19;3.43;;;1.50;;
13941;SDS011;7043;51.630;7.254;2022-09-09T15:08:47;2.80;;;1.80;;
13941;SDS011;7043;51.630;7.254;2022-09-09T15:11:14;2.53;;;1.60;;
13941;SDS011;7043;51.630;7.254;2022-09-09T15:13:41;2.28;;;1.40;;
13941;SDS011;7043;51.630;7.254;2022-09-09T15:16:08;3.93;;;1.77;;
13941;SDS011;7043;51.630;7.254;2022-09-09T15:18:35;2.83;;;1.63;;
13941;SDS011;7043;51.630;7.254;2022-09-09T15:21:01;3.10;;;1.60;;
13941;SDS011;7043;51.630;7.254;2022-09-09T15:23:28;4.47;;;1.67;;
13941;SDS011;7043;51.630;7.254;2022-09-09T15:25:54;3.53;;;1.97;;
13941;SDS011;7043;51.630;7.254;2022-09-09T15:28:21;4.85;;;1.80;;
13941;SDS011;7043;51.630;7.254;2022-09-09T15:30:48;3.47;;;1.92;;
13941;SDS011;7043;51.630;7.254;2022-09-09T15:33:14;3.00;;;1.60;;
13941;SDS011;7043;51.630;7.254;2022-09-09T15:35:40;4.80;;;2.20;;
13941;SDS011;7043;51.630;7.254;2022-09-09T15:38:06;5.57;;;2.27;;
13941;SDS011;7043;51.630;7.254;2022-09-09T15:40:32;3.47;;;1.30;;
13941;SDS011;7043;51.630;7.254;2022-09-09T15:42:59;1.80;;;1.30;;
13941;SDS011;7043;51.630;7.254;2022-09-09T15:45:25;2.23;;;1.10;;
13941;SDS011;7043;51.630;7.254;2022-09-09T15:47:51;1.87;;;0.80;;
13941;SDS011;7043;51.630;7.254;2022-09-09T15:50:17;1.23;;;0.73;;
13941;SDS011;7043;51.630;7.254;2022-09-09T15:52:43;1.57;;;0.90;;
13941;SDS011;7043;51.630;7.254;2022-09-09T15:55:09;1.37;;;0.70;;
13941;SDS011;7043;51.630;7.254;2022-09-09T15:57:35;1.30;;;0.50;;
13941;SDS011;7043;51.630;7.254;2022-09-09T16:00:02;0.93;;;0.70;;
13941;SDS011;7043;51.630;7.254;2022-09-09T16:02:29;1.43;;;0.80;;
13941;SDS011;7043;51.630;7.254;2022-09-09T16:04:55;1.30;;;0.70;;
13941;SDS011;7043;51.630;7.254;2022-09-09T16:07:22;3.03;;;1.67;;
13941;SDS011;7043;51.630;7.254;2022-09-09T16:09:48;1.50;;;0.93;;
13941;SDS011;7043;51.630;7.254;2022-09-09T16:12:17;2.03;;;1.00;;
13941;SDS011;7043;51.630;7.254;2022-09-09T16:14:44;2.93;;;0.90;;
13941;SDS011;7043;51.630;7.254;2022-09-09T16:17:10;2.87;;;1.17;;
13941;SDS011;7043;51.630;7.254;2022-09-09T16:19:36;2.03;;;1.30;;
13941;SDS011;7043;51.630;7.254;2022-09-09T16:22:03;2.20;;;0.90;;
13941;SDS011;7043;51.630;7.254;2022-09-09T16:24:30;2.03;;;1.00;;
13941;SDS011;7043;51.630;7.254;2022-09-09T16:26:56;2.30;;;1.10;;
13941;SDS011;7043;51.630;7.254;2022-09-09T16:29:23;4.30;;;0.97;;
13941;SDS011;7043;51.630;7.254;2022-09-09T16:31:53;2.17;;;1.00;;
13941;SDS011;7043;51.630;7.254;2022-09-09T16:34:19;2.57;;;1.00;;
13941;SDS011;7043;51.630;7.254;2022-09-09T16:36:46;1.53;;;0.90;;
13941;SDS011;7043;51.630;7.254;2022-09-09T16:39:14;1.40;;;0.80;;
13941;SDS011;7043;51.630;7.254;2022-09-09T16:41:41;1.43;;;0.90;;
13941;SDS011;7043;51.630;7.254;2022-09-09T16:44:08;2.77;;;1.10;;
13941;SDS011;7043;51.630;7.254;2022-09-09T16:46:38;2.00;;;0.80;;
13941;SDS011;7043;51.630;7.254;2022-09-09T16:49:06;1.80;;;0.80;;
13941;SDS011;7043;51.630;7.254;2022-09-09T16:51:35;0.83;;;0.80;;
13941;SDS011;7043;51.630;7.254;2022-09-09T16:54:02;1.77;;;0.60;;
13941;SDS011;7043;51.630;7.254;2022-09-09T16:56:30;2.53;;;0.80;;
13941;SDS011;7043;51.630;7.254;2022-09-09T16:58:58;3.43;;;0.87;;
13941;SDS011;7043;51.630;7.254;2022-09-09T17:01:25;1.57;;;0.80;;
13941;SDS011;7043;51.630;7.254;2022-09-09T17:03:54;1.80;;;1.13;;
13941;SDS011;7043;51.630;7.254;2022-09-09T17:06:21;1.13;;;0.83;;
13941;SDS011;7043;51.630;7.254;2022-09-09T17:08:47;1.70;;;0.80;;
13941;SDS011;7043;51.630;7.254;2022-09-09T17:11:14;2.57;;;0.97;;
13941;SDS011;7043;51.630;7.254;2022-09-09T17:13:44;1.20;;;0.80;;
13941;SDS011;7043;51.630;7.254;2022-09-09T17:16:11;0.93;;;0.73;;
13941;SDS011;7043;51.630;7.254;2022-09-09T17:18:37;1.53;;;0.77;;
13941;SDS011;7043;51.630;7.254;2022-09-09T17:21:07;1.00;;;0.80;;
13941;SDS011;7043;51.630;7.254;2022-09-09T17:23:36;2.00;;;1.00;;
13941;SDS011;7043;51.630;7.254;2022-09-09T17:26:03;2.77;;;1.13;;
13941;SDS011;7043;51.630;7.254;2022-09-09T17:28:30;3.47;;;1.20;;
13941;SDS011;7043;51.630;7.254;2022-09-09T17:31:00;1.57;;;1.10;;